sensor_id;sensor_type;location;lat;lon;timestamp;pressure;altitude;pressure_sealevel;temperature;humidity
6347;BME280;3206;42.666;23.600;2023-02-28T00:00:25;95619.00;;;6.92;100.00
6347;BME280;3206;42.666;23.600;2023-02-28T00:02:52;95627.63;;;6.98;100.00
6347;BME280;3206;42.666;23.600;2023-02-28T00:05:21;95628.34;;;6.90;100.00
6347;BME280;3206;42.666;23.600;2023-02-28T00:07:49;95614.19;;;6.94;100.00
6347;BME280;3206;42.666;23.600;2023-02-28T00:10:17;95624.47;;;6.96;100.00
6347;BME280;3206;42.666;23.600;2023-02-28T00:12:47;95630.06;;;6.86;100.00
6347;BME280;3206;42.666;23.600;2023-02-28T00:15:14;95640.28;;;6.35;100.00
6347;BME280;3206;42.666;23.600;2023-02-28T00:17:40;95636.38;;;6.32;100.00
6347;BME280;3206;42.666;23.600;2023-02-28T00:20:09;95646.91;;;6.59;100.00
6347;BME280;3206;42.666;23.600;2023-02-28T00:22:38;95639.16;;;6.93;100.00
6347;BME280;3206;42.666;23.600;2023-02-28T00:25:06;95645.47;;;7.06;100.00
6347;BME280;3206;42.666;23.600;2023-02-28T00:27:33;95651.41;;;7.03;100.00
6347;BME280;3206;42.666;23.600;2023-02-28T00:30:01;95643.53;;;7.20;100.00
6347;BME280;3206;42.666;23.600;2023-02-28T00:32:29;95640.22;;;7.14;100.00
6347;BME280;3206;42.666;23.600;2023-02-28T00:34:56;95631.81;;;7.21;100.00
6347;BME280;3206;42.666;23.600;2023-02-28T00:37:22;95619.22;;;7.35;100.00
6347;BME280;3206;42.666;23.600;2023-02-28T00:39:49;95624.41;;;7.39;100.00
6347;BME280;3206;42.666;23.600;2023-02-28T00:42:16;95622.56;;;7.48;100.00
6347;BME280;3206;42.666;23.600;2023-02-28T00:44:42;95631.91;;;7.38;100.00
6347;BME280;3206;42.666;23.600;2023-02-28T00:47:10;95637.53;;;7.44;100.00
6347;BME280;3206;42.666;23.600;2023-02-28T00:49:37;95633.47;;;7.38;100.00
6347;BME280;3206;42.666;23.600;2023-02-28T00:52:04;95637.22;;;7.38;100.00
6347;BME280;3206;42.666;23.600;2023-02-28T00:54:30;95632.56;;;7.43;100.00
6347;BME280;3206;42.666;23.600;2023-02-28T00:56:57;95624.16;;;7.49;100.00
6347;BME280;3206;42.666;23.600;2023-02-28T00:59:24;95612.75;;;7.57;100.00
6347;BME280;3206;42.666;23.600;2023-02-28T01:01:51;95606.34;;;7.58;100.00
6347;BME280;3206;42.666;23.600;2023-02-28T01:04:19;95602.44;;;7.64;100.00
6347;BME280;3206;42.666;23.600;2023-02-28T01:06:45;95606.91;;;7.38;100.00
6347;BME280;3206;42.666;23.600;2023-02-28T01:09:12;95595.91;;;7.32;100.00
6347;BME280;3206;42.666;23.600;2023-02-28T01:11:39;95597.63;;;7.28;100.00
6347;BME280;3206;42.666;23.600;2023-02-28T01:14:07;95613.09;;;7.26;100.00
6347;BME280;3206;42.666;23.600;2023-02-28T01:16:33;95611.28;;;7.13;100.00
6347;BME280;3206;42.666;23.600;2023-02-28T01:19:00;95613.34;;;6.85;100.00
6347;BME280;3206;42.666;23.600;2023-02-28T01:21:28;95606.53;;;6.71;100.00
6347;BME280;3206;42.666;23.600;2023-02-28T01:23:56;95614.59;;;6.88;100.00
6347;BME280;3206;42.666;23.600;2023-02-28T01:26:24;95609.97;;;6.93;100.00
6347;BME280;3206;42.666;23.600;2023-02-28T01:28:51;95607.25;;;6.85;100.00
6347;BME280;3206;42.666;23.600;2023-02-28T01:31:19;95605.19;;;7.04;100.00
6347;BME280;3206;42.666;23.600;2023-02-28T01:33:46;95611.78;;;7.15;100.00
6347;BME280;3206;42.666;23.600;2023-02-28T01:36:16;95608.78;;;7.08;100.00
6347;BME280;3206;42.666;23.600;2023-02-28T01:38:44;95615.38;;;7.10;100.00
6347;BME280;3206;42.666;23.600;2023-02-28T01:41:15;95603.94;;;7.10;100.00
6347;BME280;3206;42.666;23.600;2023-02-28T01:43:54;95606.78;;;7.13;100.00
6347;BME280;3206;42.666;23.600;2023-02-28T01:46:21;95611.47;;;6.86;100.00
6347;BME280;3206;42.666;23.600;2023-02-28T01:48:50;95599.16;;;6.90;100.00
6347;BME280;3206;42.666;23.600;2023-02-28T01:51:20;95602.16;;;6.97;100.00
6347;BME280;3206;42.666;23.600;2023-02-28T01:53:53;95610.16;;;6.75;100.00
6347;BME280;3206;42.666;23.600;2023-02-28T01:56:24;95607.84;;;6.60;100.00
6347;BME280;3206;42.666;23.600;2023-02-28T01:58:53;95616.41;;;6.79;100.00
6347;BME280;3206;42.666;23.600;2023-02-28T02:01:21;95620.63;;;6.80;100.00
6347;BME280;3206;42.666;23.600;2023-02-28T02:03:49;95623.34;;;6.66;100.00
6347;BME280;3206;42.666;23.600;2023-02-28T02:06:20;95617.63;;;6.51;100.00
6347;BME280;3206;42.666;23.600;2023-02-28T02:08:49;95625.69;;;6.46;100.00
6347;BME280;3206;42.666;23.600;2023-02-28T02:11:19;95623.38;;;6.31;100.00
6347;BME280;3206;42.666;23.600;2023-02-28T02:14:07;95632.56;;;6.25;100.00
6347;BME280;3206;42.666;23.600;2023-02-28T02:16:46;95640.22;;;6.13;100.00
6347;BME280;3206;42.666;23.600;2023-02-28T02:19:34;95639.25;;;6.09;100.00
6347;BME280;3206;42.666;23.600;2023-02-28T02:25:28;95638.56;;;5.76;100.00
6347;BME280;3206;42.666;23.600;2023-02-28T02:31:11;95644.69;;;5.77;100.00
6347;BME280;3206;42.666;23.600;2023-02-28T02:34:08;95646.09;;;5.88;100.00
6347;BME280;3206;42.666;23.600;2023-02-28T02:36:42;95645.47;;;5.91;100.00
6347;BME280;3206;42.666;23.600;2023-02-28T02:39:17;95637.03;;;5.89;100.00
6347;BME280;3206;42.666;23.600;2023-02-28T02:41:49;95641.56;;;5.88;100.00
6347;BME280;3206;42.666;23.600;2023-02-28T02:44:21;95646.00;;;5.79;100.00
6347;BME280;3206;42.666;23.600;2023-02-28T02:46:51;95655.69;;;5.84;100.00
6347;BME280;3206;42.666;23.600;2023-02-28T02:49:23;95639.78;;;5.84;100.00
6347;BME280;3206;42.666;23.600;2023-02-28T02:51:52;95636.25;;;5.75;100.00
6347;BME280;3206;42.666;23.600;2023-02-28T02:54:22;95648.41;;;5.76;100.00
6347;BME280;3206;42.666;23.600;2023-02-28T02:56:55;95650.78;;;5.37;100.00
6347;BME280;3206;42.666;23.600;2023-02-28T02:59:24;95662.50;;;5.04;100.00
6347;BME280;3206;42.666;23.600;2023-02-28T03:01:55;95661.03;;;5.25;100.00
6347;BME280;3206;42.666;23.600;2023-02-28T03:04:27;95659.78;;;5.36;100.00
6347;BME280;3206;42.666;23.600;2023-02-28T03:06:56;95665.56;;;4.93;100.00
6347;BME280;3206;42.666;23.600;2023-02-28T03:09:24;95656.28;;;4.95;100.00
6347;BME280;3206;42.666;23.600;2023-02-28T03:11:53;95669.00;;;5.25;100.00
6347;BME280;3206;42.666;23.600;2023-02-28T03:14:37;95674.41;;;5.34;100.00
6347;BME280;3206;42.666;23.600;2023-02-28T03:17:23;95680.97;;;5.36;100.00
6347;BME280;3206;42.666;23.600;2023-02-28T03:19:59;95676.66;;;5.40;100.00
6347;BME280;3206;42.666;23.600;2023-02-28T03:22:49;95675.31;;;5.56;100.00
6347;BME280;3206;42.666;23.600;2023-02-28T03:25:22;95675.91;;;5.53;100.00
6347;BME280;3206;42.666;23.600;2023-02-28T03:27:59;95682.56;;;5.50;100.00
6347;BME280;3206;42.666;23.600;2023-02-28T03:30:34;95693.91;;;5.24;100.00
6347;BME280;3206;42.666;23.600;2023-02-28T03:33:06;95694.41;;;5.40;100.00
6347;BME280;3206;42.666;23.600;2023-02-28T03:35:38;95702.34;;;5.40;100.00
6347;BME280;3206;42.666;23.600;2023-02-28T03:38:09;95702.78;;;5.60;100.00
6347;BME280;3206;42.666;23.600;2023-02-28T03:40:41;95692.97;;;5.74;100.00
6347;BME280;3206;42.666;23.600;2023-02-28T03:43:12;95696.34;;;5.93;100.00
6347;BME280;3206;42.666;23.600;2023-02-28T03:45:41;95698.97;;;5.93;100.00
6347;BME280;3206;42.666;23.600;2023-02-28T03:48:15;95703.41;;;5.97;100.00
6347;BME280;3206;42.666;23.600;2023-02-28T03:50:49;95701.44;;;6.03;100.00
6347;BME280;3206;42.666;23.600;2023-02-28T03:53:22;95696.13;;;6.16;100.00
6347;BME280;3206;42.666;23.600;2023-02-28T03:55:54;95703.19;;;6.21;100.00
6347;BME280;3206;42.666;23.600;2023-02-28T03:58:27;95698.94;;;6.33;100.00
6347;BME280;3206;42.666;23.600;2023-02-28T04:01:00;95691.53;;;5.95;100.00
6347;BME280;3206;42.666;23.600;2023-02-28T04:03:32;95700.72;;;6.11;100.00
6347;BME280;3206;42.666;23.600;2023-02-28T04:06:01;95707.22;;;6.18;100.00
6347;BME280;3206;42.666;23.600;2023-02-28T04:08:28;95706.91;;;6.06;100.00
6347;BME280;3206;42.666;23.600;2023-02-28T04:10:58;95701.50;;;6.25;100.00
6347;BME280;3206;42.666;23.600;2023-02-28T04:13:28;95704.78;;;5.95;100.00
6347;BME280;3206;42.666;23.600;2023-02-28T04:15:54;95705.84;;;6.07;100.00
6347;BME280;3206;42.666;23.600;2023-02-28T04:18:21;95702.91;;;6.09;100.00
6347;BME280;3206;42.666;23.600;2023-02-28T04:20:48;95710.66;;;6.19;100.00
6347;BME280;3206;42.666;23.600;2023-02-28T04:23:15;95708.09;;;6.27;100.00
6347;BME280;3206;42.666;23.600;2023-02-28T04:25:42;95713.97;;;6.24;100.00
6347;BME280;3206;42.666;23.600;2023-02-28T04:28:09;95721.25;;;6.32;100.00
6347;BME280;3206;42.666;23.600;2023-02-28T04:30:37;95710.22;;;6.39;100.00
6347;BME280;3206;42.666;23.600;2023-02-28T04:33:04;95713.97;;;6.24;100.00
6347;BME280;3206;42.666;23.600;2023-02-28T04:35:31;95717.50;;;5.66;100.00
6347;BME280;3206;42.666;23.600;2023-02-28T04:37:57;95722.25;;;5.96;100.00
6347;BME280;3206;42.666;23.600;2023-02-28T04:40:25;95716.16;;;5.23;100.00
6347;BME280;3206;42.666;23.600;2023-02-28T04:42:52;95715.75;;;5.61;100.00
6347;BME280;3206;42.666;23.600;2023-02-28T04:45:19;95720.69;;;5.81;100.00
6347;BME280;3206;42.666;23.600;2023-02-28T04:47:45;95719.31;;;5.97;100.00
6347;BME280;3206;42.666;23.600;2023-02-28T04:50:12;95720.88;;;6.12;100.00
6347;BME280;3206;42.666;23.600;2023-02-28T04:52:38;95715.75;;;6.15;100.00
6347;BME280;3206;42.666;23.600;2023-02-28T04:55:06;95728.41;;;6.32;100.00
6347;BME280;3206;42.666;23.600;2023-02-28T04:57:34;95730.84;;;5.61;100.00
6347;BME280;3206;42.666;23.600;2023-02-28T05:00:00;95692.88;;;5.07;100.00
6347;BME280;3206;42.666;23.600;2023-02-28T05:02:35;95727.41;;;5.74;100.00
6347;BME280;3206;42.666;23.600;2023-02-28T05:05:01;95723.00;;;5.56;100.00
6347;BME280;3206;42.666;23.600;2023-02-28T05:07:30;95727.53;;;5.96;100.00
6347;BME280;3206;42.666;23.600;2023-02-28T05:09:57;95720.41;;;5.51;100.00
6347;BME280;3206;42.666;23.600;2023-02-28T05:12:24;95723.81;;;5.97;100.00
6347;BME280;3206;42.666;23.600;2023-02-28T05:14:52;95727.53;;;6.23;100.00
6347;BME280;3206;42.666;23.600;2023-02-28T05:17:18;95728.91;;;5.80;100.00
6347;BME280;3206;42.666;23.600;2023-02-28T05:19:45;95731.69;;;6.02;100.00
6347;BME280;3206;42.666;23.600;2023-02-28T05:22:13;95735.78;;;6.35;100.00
6347;BME280;3206;42.666;23.600;2023-02-28T05:24:41;95733.31;;;6.38;100.00
6347;BME280;3206;42.666;23.600;2023-02-28T05:27:08;95736.91;;;6.56;100.00
6347;BME280;3206;42.666;23.600;2023-02-28T05:29:34;95738.25;;;6.67;100.00
6347;BME280;3206;42.666;23.600;2023-02-28T05:32:10;95749.81;;;6.84;100.00
6347;BME280;3206;42.666;23.600;2023-02-28T05:34:38;95742.13;;;6.83;100.00
6347;BME280;3206;42.666;23.600;2023-02-28T05:37:05;95764.00;;;6.66;100.00
6347;BME280;3206;42.666;23.600;2023-02-28T05:39:32;95756.56;;;6.55;100.00
6347;BME280;3206;42.666;23.600;2023-02-28T05:41:59;95765.22;;;6.60;100.00
6347;BME280;3206;42.666;23.600;2023-02-28T05:44:26;95768.81;;;6.78;100.00
6347;BME280;3206;42.666;23.600;2023-02-28T05:46:52;95777.50;;;6.92;100.00
6347;BME280;3206;42.666;23.600;2023-02-28T05:49:20;95773.56;;;7.03;100.00
6347;BME280;3206;42.666;23.600;2023-02-28T05:51:47;95771.00;;;6.98;100.00
6347;BME280;3206;42.666;23.600;2023-02-28T05:54:14;95778.59;;;6.91;100.00
6347;BME280;3206;42.666;23.600;2023-02-28T05:56:40;95774.88;;;7.14;100.00
6347;BME280;3206;42.666;23.600;2023-02-28T05:59:09;95771.50;;;7.22;100.00
6347;BME280;3206;42.666;23.600;2023-02-28T06:01:38;95778.13;;;7.11;100.00
6347;BME280;3206;42.666;23.600;2023-02-28T06:04:07;95773.44;;;7.30;100.00
6347;BME280;3206;42.666;23.600;2023-02-28T06:06:35;95773.06;;;7.44;100.00
6347;BME280;3206;42.666;23.600;2023-02-28T06:09:03;95773.75;;;7.28;100.00
6347;BME280;3206;42.666;23.600;2023-02-28T06:11:29;95793.00;;;7.12;100.00
6347;BME280;3206;42.666;23.600;2023-02-28T06:13:57;95787.44;;;7.43;100.00
6347;BME280;3206;42.666;23.600;2023-02-28T06:16:25;95781.44;;;6.94;100.00
6347;BME280;3206;42.666;23.600;2023-02-28T06:18:52;95784.47;;;7.01;100.00
6347;BME280;3206;42.666;23.600;2023-02-28T06:21:21;95790.44;;;7.07;100.00
6347;BME280;3206;42.666;23.600;2023-02-28T06:23:49;95772.75;;;7.24;100.00
6347;BME280;3206;42.666;23.600;2023-02-28T06:26:16;95780.84;;;7.41;100.00
6347;BME280;3206;42.666;23.600;2023-02-28T06:28:43;95779.19;;;7.45;100.00
6347;BME280;3206;42.666;23.600;2023-02-28T06:31:11;95791.34;;;7.68;100.00
6347;BME280;3206;42.666;23.600;2023-02-28T06:33:38;95801.56;;;7.74;100.00
6347;BME280;3206;42.666;23.600;2023-02-28T06:36:06;95793.09;;;7.72;100.00
6347;BME280;3206;42.666;23.600;2023-02-28T06:38:33;95797.56;;;7.85;100.00
6347;BME280;3206;42.666;23.600;2023-02-28T06:41:02;95798.16;;;8.13;100.00
6347;BME280;3206;42.666;23.600;2023-02-28T06:43:29;95783.34;;;8.20;100.00
6347;BME280;3206;42.666;23.600;2023-02-28T06:45:58;95797.97;;;8.48;100.00
6347;BME280;3206;42.666;23.600;2023-02-28T06:48:26;95803.59;;;8.38;100.00
6347;BME280;3206;42.666;23.600;2023-02-28T06:51:01;95806.19;;;8.60;100.00
6347;BME280;3206;42.666;23.600;2023-02-28T06:53:28;95802.13;;;8.63;100.00
6347;BME280;3206;42.666;23.600;2023-02-28T06:55:56;95811.22;;;8.70;100.00
6347;BME280;3206;42.666;23.600;2023-02-28T06:58:24;95811.88;;;8.84;100.00
6347;BME280;3206;42.666;23.600;2023-02-28T07:00:51;95817.06;;;8.89;100.00
6347;BME280;3206;42.666;23.600;2023-02-28T07:03:18;95815.31;;;8.85;100.00
6347;BME280;3206;42.666;23.600;2023-02-28T07:05:45;95816.25;;;8.89;100.00
6347;BME280;3206;42.666;23.600;2023-02-28T07:08:12;95808.28;;;8.97;100.00
6347;BME280;3206;42.666;23.600;2023-02-28T07:10:39;95806.25;;;8.94;100.00
6347;BME280;3206;42.666;23.600;2023-02-28T07:13:07;95807.34;;;8.93;100.00
6347;BME280;3206;42.666;23.600;2023-02-28T07:15:35;95806.25;;;8.94;100.00
6347;BME280;3206;42.666;23.600;2023-02-28T07:18:02;95789.75;;;8.75;100.00
6347;BME280;3206;42.666;23.600;2023-02-28T07:20:29;95807.34;;;8.93;100.00
6347;BME280;3206;42.666;23.600;2023-02-28T07:22:56;95795.13;;;8.92;100.00
6347;BME280;3206;42.666;23.600;2023-02-28T07:25:23;95809.38;;;9.05;100.00
6347;BME280;3206;42.666;23.600;2023-02-28T07:27:49;95808.91;;;8.94;100.00
6347;BME280;3206;42.666;23.600;2023-02-28T07:30:17;95812.84;;;9.22;100.00
6347;BME280;3206;42.666;23.600;2023-02-28T07:32:45;95805.97;;;9.29;100.00
6347;BME280;3206;42.666;23.600;2023-02-28T07:35:12;95773.50;;;8.85;100.00
6347;BME280;3206;42.666;23.600;2023-02-28T07:37:40;95814.81;;;8.74;100.00
6347;BME280;3206;42.666;23.600;2023-02-28T07:40:10;95803.28;;;9.04;100.00
6347;BME280;3206;42.666;23.600;2023-02-28T07:42:38;95797.66;;;9.31;100.00
6347;BME280;3206;42.666;23.600;2023-02-28T07:45:06;95805.16;;;9.37;100.00
6347;BME280;3206;42.666;23.600;2023-02-28T07:47:33;95811.13;;;9.43;100.00
6347;BME280;3206;42.666;23.600;2023-02-28T07:50:02;95811.28;;;9.55;100.00
6347;BME280;3206;42.666;23.600;2023-02-28T07:52:29;95806.09;;;9.67;100.00
6347;BME280;3206;42.666;23.600;2023-02-28T07:54:55;95810.47;;;9.71;100.00
6347;BME280;3206;42.666;23.600;2023-02-28T07:57:22;95810.94;;;9.82;100.00
6347;BME280;3206;42.666;23.600;2023-02-28T07:59:49;95804.22;;;9.42;100.00
6347;BME280;3206;42.666;23.600;2023-02-28T08:02:17;95799.06;;;9.45;100.00
6347;BME280;3206;42.666;23.600;2023-02-28T08:04:45;95800.75;;;9.67;100.00
6347;BME280;3206;42.666;23.600;2023-02-28T08:07:15;95805.72;;;9.85;100.00
6347;BME280;3206;42.666;23.600;2023-02-28T08:09:42;95807.91;;;9.92;100.00
6347;BME280;3206;42.666;23.600;2023-02-28T08:12:11;95811.69;;;9.91;100.00
6347;BME280;3206;42.666;23.600;2023-02-28T08:14:38;95814.53;;;10.03;100.00
6347;BME280;3206;42.666;23.600;2023-02-28T08:17:06;95818.56;;;10.09;100.00
6347;BME280;3206;42.666;23.600;2023-02-28T08:19:32;95822.00;;;10.18;100.00
6347;BME280;3206;42.666;23.600;2023-02-28T08:21:59;95809.00;;;10.08;100.00
6347;BME280;3206;42.666;23.600;2023-02-28T08:24:27;95814.75;;;10.27;100.00
6347;BME280;3206;42.666;23.600;2023-02-28T08:26:54;95809.75;;;10.25;100.00
6347;BME280;3206;42.666;23.600;2023-02-28T08:29:21;95814.56;;;10.40;100.00
6347;BME280;3206;42.666;23.600;2023-02-28T08:31:47;95811.38;;;10.47;100.00
6347;BME280;3206;42.666;23.600;2023-02-28T08:34:15;95811.31;;;10.64;100.00
6347;BME280;3206;42.666;23.600;2023-02-28T08:36:42;95819.47;;;10.59;100.00
6347;BME280;3206;42.666;23.600;2023-02-28T08:39:10;95823.63;;;9.85;100.00
6347;BME280;3206;42.666;23.600;2023-02-28T08:41:38;95822.72;;;9.81;100.00
6347;BME280;3206;42.666;23.600;2023-02-28T08:44:05;95817.41;;;10.27;100.00
6347;BME280;3206;42.666;23.600;2023-02-28T08:46:31;95827.06;;;9.94;100.00
6347;BME280;3206;42.666;23.600;2023-02-28T08:48:58;95826.75;;;10.04;100.00
6347;BME280;3206;42.666;23.600;2023-02-28T08:51:27;95826.28;;;10.02;100.00
6347;BME280;3206;42.666;23.600;2023-02-28T08:53:57;95826.56;;;10.09;100.00
6347;BME280;3206;42.666;23.600;2023-02-28T08:56:25;95830.34;;;9.99;100.00
6347;BME280;3206;42.666;23.600;2023-02-28T08:58:54;95818.38;;;10.31;100.00
6347;BME280;3206;42.666;23.600;2023-02-28T09:01:23;95826.56;;;10.17;100.00
6347;BME280;3206;42.666;23.600;2023-02-28T09:03:51;95824.50;;;10.23;100.00
6347;BME280;3206;42.666;23.600;2023-02-28T09:06:19;95804.94;;;9.93;100.00
6347;BME280;3206;42.666;23.600;2023-02-28T09:08:46;95821.09;;;10.14;100.00
6347;BME280;3206;42.666;23.600;2023-02-28T09:11:13;95823.28;;;10.12;100.00
6347;BME280;3206;42.666;23.600;2023-02-28T09:13:40;95822.31;;;10.16;100.00
6347;BME280;3206;42.666;23.600;2023-02-28T09:16:11;95825.03;;;9.82;100.00
6347;BME280;3206;42.666;23.600;2023-02-28T09:18:39;95819.69;;;9.91;100.00
6347;BME280;3206;42.666;23.600;2023-02-28T09:21:07;95821.72;;;9.94;100.00
6347;BME280;3206;42.666;23.600;2023-02-28T09:23:35;95830.34;;;9.91;100.00
6347;BME280;3206;42.666;23.600;2023-02-28T09:26:04;95806.06;;;9.84;100.00
6347;BME280;3206;42.666;23.600;2023-02-28T09:28:31;95834.41;;;10.22;100.00
6347;BME280;3206;42.666;23.600;2023-02-28T09:30:58;95830.34;;;10.08;100.00
6347;BME280;3206;42.666;23.600;2023-02-28T09:33:26;95833.78;;;10.17;100.00
6347;BME280;3206;42.666;23.600;2023-02-28T09:35:58;95836.91;;;10.27;100.00
6347;BME280;3206;42.666;23.600;2023-02-28T09:38:25;95824.84;;;10.04;100.00
6347;BME280;3206;42.666;23.600;2023-02-28T09:40:56;95825.28;;;10.32;100.00
6347;BME280;3206;42.666;23.600;2023-02-28T09:43:25;95829.69;;;10.19;100.00
6347;BME280;3206;42.666;23.600;2023-02-28T09:45:56;95829.78;;;10.40;100.00
6347;BME280;3206;42.666;23.600;2023-02-28T09:48:31;95820.44;;;10.17;100.00
6347;BME280;3206;42.666;23.600;2023-02-28T09:51:03;95820.38;;;10.71;100.00
6347;BME280;3206;42.666;23.600;2023-02-28T09:53:33;95821.84;;;10.89;100.00
6347;BME280;3206;42.666;23.600;2023-02-28T09:56:04;95816.88;;;10.79;100.00
6347;BME280;3206;42.666;23.600;2023-02-28T09:58:37;95817.97;;;11.07;100.00
6347;BME280;3206;42.666;23.600;2023-02-28T10:01:11;95811.44;;;11.17;100.00
6347;BME280;3206;42.666;23.600;2023-02-28T10:03:43;95814.19;;;11.28;100.00
6347;BME280;3206;42.666;23.600;2023-02-28T10:06:16;95810.06;;;10.90;100.00
6347;BME280;3206;42.666;23.600;2023-02-28T10:08:50;95814.41;;;10.95;100.00
6347;BME280;3206;42.666;23.600;2023-02-28T10:11:19;95811.72;;;10.95;100.00
6347;BME280;3206;42.666;23.600;2023-02-28T10:13:53;95804.53;;;11.16;100.00
6347;BME280;3206;42.666;23.600;2023-02-28T10:16:28;95805.91;;;11.21;100.00
6347;BME280;3206;42.666;23.600;2023-02-28T10:19:03;95785.09;;;11.07;100.00
6347;BME280;3206;42.666;23.600;2023-02-28T10:21:35;95796.22;;;10.88;100.00
6347;BME280;3206;42.666;23.600;2023-02-28T10:24:14;95800.09;;;11.19;100.00
6347;BME280;3206;42.666;23.600;2023-02-28T10:26:47;95800.22;;;11.43;100.00
6347;BME280;3206;42.666;23.600;2023-02-28T10:29:15;95791.16;;;11.16;100.00
6347;BME280;3206;42.666;23.600;2023-02-28T10:31:41;95802.38;;;11.29;100.00
6347;BME280;3206;42.666;23.600;2023-02-28T10:34:11;95794.09;;;11.43;100.00
6347;BME280;3206;42.666;23.600;2023-02-28T10:36:39;95794.06;;;11.02;100.00
6347;BME280;3206;42.666;23.600;2023-02-28T10:39:38;95788.31;;;11.53;100.00
6347;BME280;3206;42.666;23.600;2023-02-28T10:42:19;95786.91;;;11.35;100.00
6347;BME280;3206;42.666;23.600;2023-02-28T10:44:46;95787.31;;;11.25;100.00
6347;BME280;3206;42.666;23.600;2023-02-28T10:47:14;95782.88;;;11.09;100.00
6347;BME280;3206;42.666;23.600;2023-02-28T10:49:49;95776.09;;;11.11;100.00
6347;BME280;3206;42.666;23.600;2023-02-28T10:52:33;95777.28;;;11.22;100.00
6347;BME280;3206;42.666;23.600;2023-02-28T10:55:20;95769.91;;;11.60;100.00
6347;BME280;3206;42.666;23.600;2023-02-28T10:57:48;95767.66;;;11.41;100.00
6347;BME280;3206;42.666;23.600;2023-02-28T11:00:17;95762.38;;;11.53;100.00
6347;BME280;3206;42.666;23.600;2023-02-28T11:02:44;95761.13;;;11.71;100.00
6347;BME280;3206;42.666;23.600;2023-02-28T11:05:27;95762.72;;;11.84;100.00
6347;BME280;3206;42.666;23.600;2023-02-28T11:07:56;95762.75;;;12.08;100.00
6347;BME280;3206;42.666;23.600;2023-02-28T11:10:26;95754.44;;;11.77;100.00
6347;BME280;3206;42.666;23.600;2023-02-28T11:12:56;95751.28;;;11.63;100.00
6347;BME280;3206;42.666;23.600;2023-02-28T11:15:24;95749.53;;;11.67;100.00
6347;BME280;3206;42.666;23.600;2023-02-28T11:17:57;95752.69;;;11.81;100.00
6347;BME280;3206;42.666;23.600;2023-02-28T11:20:28;95748.84;;;11.38;100.00
6347;BME280;3206;42.666;23.600;2023-02-28T11:22:56;95741.34;;;11.31;100.00
6347;BME280;3206;42.666;23.600;2023-02-28T11:25:25;95741.94;;;11.69;100.00
6347;BME280;3206;42.666;23.600;2023-02-28T11:27:54;95738.19;;;11.82;100.00
6347;BME280;3206;42.666;23.600;2023-02-28T11:30:32;95744.47;;;11.98;100.00
6347;BME280;3206;42.666;23.600;2023-02-28T11:32:59;95741.31;;;11.84;100.00
6347;BME280;3206;42.666;23.600;2023-02-28T11:35:31;95736.81;;;11.64;100.00
6347;BME280;3206;42.666;23.600;2023-02-28T11:38:00;95734.97;;;12.01;100.00
6347;BME280;3206;42.666;23.600;2023-02-28T11:40:34;95732.34;;;12.37;100.00
6347;BME280;3206;42.666;23.600;2023-02-28T11:43:18;95731.13;;;12.46;100.00
6347;BME280;3206;42.666;23.600;2023-02-28T11:45:58;95729.75;;;12.52;100.00
6347;BME280;3206;42.666;23.600;2023-02-28T11:48:31;95730.19;;;12.54;100.00
6347;BME280;3206;42.666;23.600;2023-02-28T11:51:08;95731.72;;;12.91;100.00
6347;BME280;3206;42.666;23.600;2023-02-28T11:53:52;95735.78;;;12.49;100.00
6347;BME280;3206;42.666;23.600;2023-02-28T11:56:26;95720.94;;;12.16;100.00
6347;BME280;3206;42.666;23.600;2023-02-28T11:59:10;95732.88;;;12.66;100.00
6347;BME280;3206;42.666;23.600;2023-02-28T12:01:57;95722.63;;;12.20;100.00
6347;BME280;3206;42.666;23.600;2023-02-28T12:04:40;95723.94;;;12.38;100.00
6347;BME280;3206;42.666;23.600;2023-02-28T12:07:18;95705.66;;;12.04;100.00
6347;BME280;3206;42.666;23.600;2023-02-28T12:09:58;95722.50;;;12.05;100.00
6347;BME280;3206;42.666;23.600;2023-02-28T12:12:38;95722.41;;;12.37;100.00
6347;BME280;3206;42.666;23.600;2023-02-28T12:15:25;95726.94;;;11.89;100.00
6347;BME280;3206;42.666;23.600;2023-02-28T12:18:09;95730.34;;;11.77;100.00
6347;BME280;3206;42.666;23.600;2023-02-28T12:20:45;95723.25;;;11.93;100.00
6347;BME280;3206;42.666;23.600;2023-02-28T12:23:43;95731.09;;;12.34;100.00
6347;BME280;3206;42.666;23.600;2023-02-28T12:26:18;95730.63;;;12.56;100.00
6347;BME280;3206;42.666;23.600;2023-02-28T12:28:52;95726.81;;;11.85;100.00
6347;BME280;3206;42.666;23.600;2023-02-28T12:31:23;95715.47;;;12.12;100.00
6347;BME280;3206;42.666;23.600;2023-02-28T12:33:52;95709.00;;;12.01;100.00
6347;BME280;3206;42.666;23.600;2023-02-28T12:36:22;95710.13;;;12.24;100.00
6347;BME280;3206;42.666;23.600;2023-02-28T12:38:56;95707.09;;;12.26;100.00
6347;BME280;3206;42.666;23.600;2023-02-28T12:41:29;95709.34;;;12.12;100.00
6347;BME280;3206;42.666;23.600;2023-02-28T12:44:02;95697.94;;;12.63;100.00
6347;BME280;3206;42.666;23.600;2023-02-28T12:46:33;95709.88;;;12.77;100.00
6347;BME280;3206;42.666;23.600;2023-02-28T12:49:06;95713.63;;;12.88;100.00
6347;BME280;3206;42.666;23.600;2023-02-28T12:51:35;95704.31;;;12.34;100.00
6347;BME280;3206;42.666;23.600;2023-02-28T12:54:12;95707.66;;;12.43;100.00
6347;BME280;3206;42.666;23.600;2023-02-28T12:56:44;95704.28;;;12.70;100.00
6347;BME280;3206;42.666;23.600;2023-02-28T12:59:22;95706.25;;;12.85;100.00
6347;BME280;3206;42.666;23.600;2023-02-28T13:02:09;95700.66;;;13.02;100.00
6347;BME280;3206;42.666;23.600;2023-02-28T13:05:12;95708.63;;;12.87;100.00
6347;BME280;3206;42.666;23.600;2023-02-28T13:08:10;95710.13;;;12.36;100.00
6347;BME280;3206;42.666;23.600;2023-02-28T13:10:46;95706.44;;;12.53;100.00
6347;BME280;3206;42.666;23.600;2023-02-28T13:13:17;95708.44;;;12.44;100.00
6347;BME280;3206;42.666;23.600;2023-02-28T13:15:59;95699.41;;;12.60;100.00
6347;BME280;3206;42.666;23.600;2023-02-28T13:18:35;95691.72;;;12.11;100.00
6347;BME280;3206;42.666;23.600;2023-02-28T13:21:03;95697.81;;;11.43;100.00
6347;BME280;3206;42.666;23.600;2023-02-28T13:23:59;95676.47;;;11.02;100.00
6347;BME280;3206;42.666;23.600;2023-02-28T13:29:30;95693.56;;;10.69;100.00
6347;BME280;3206;42.666;23.600;2023-02-28T13:32:31;95680.75;;;10.83;100.00
6347;BME280;3206;42.666;23.600;2023-02-28T13:38:36;95688.69;;;10.71;100.00